createdAt,value
2023-06-20T00:02:02.980Z,3.17
2023-06-20T00:04:35.804Z,3.28
2023-06-20T00:07:23.295Z,3.00
2023-06-20T00:09:56.081Z,2.78
2023-06-20T00:12:51.378Z,2.50
2023-06-20T00:15:32.587Z,2.85
2023-06-20T00:21:17.551Z,2.85
2023-06-20T00:25:28.544Z,3.28
2023-06-20T00:28:03.478Z,3.03
2023-06-20T00:30:44.650Z,2.83
2023-06-20T00:33:41.821Z,2.70
2023-06-20T00:36:14.644Z,3.13
2023-06-20T00:39:08.116Z,3.30
2023-06-20T00:41:43.503Z,2.92
2023-06-20T00:44:16.430Z,3.22
2023-06-20T00:51:01.211Z,3.35
2023-06-20T00:53:34.137Z,3.97
2023-06-20T00:56:28.745Z,3.75
2023-06-20T00:59:28.855Z,3.53
2023-06-20T01:02:07.240Z,3.80
2023-06-20T01:04:50.718Z,3.50
2023-06-20T01:08:20.881Z,3.67
2023-06-20T01:11:19.461Z,3.25
2023-06-20T01:14:44.554Z,3.40
2023-06-20T01:20:52.125Z,3.88
2023-06-20T01:23:33.873Z,3.50
2023-06-20T01:26:09.553Z,3.60
2023-06-20T01:29:14.901Z,3.40
2023-06-20T01:31:57.246Z,3.17
2023-06-20T01:40:51.269Z,3.30
2023-06-20T01:43:52.511Z,3.65
2023-06-20T01:46:27.542Z,3.75
2023-06-20T01:49:03.154Z,3.38
2023-06-20T01:51:36.005Z,3.45
2023-06-20T01:54:11.203Z,3.80
2023-06-20T01:56:57.942Z,3.90
2023-06-20T02:02:36.942Z,3.83
2023-06-20T02:05:34.327Z,3.67
2023-06-20T02:08:19.570Z,3.70
2023-06-20T02:11:17.523Z,3.75
2023-06-20T02:13:51.914Z,3.42
2023-06-20T02:16:36.740Z,3.40
2023-06-20T02:19:18.563Z,3.78
2023-06-20T02:21:58.542Z,3.90
2023-06-20T02:24:58.338Z,3.78
2023-06-20T02:27:41.658Z,3.80
2023-06-20T02:30:39.268Z,3.67
2023-06-20T02:33:13.526Z,3.78
2023-06-20T02:36:09.890Z,3.08
2023-06-20T02:38:45.049Z,3.50
2023-06-20T02:41:18.735Z,3.72
2023-06-20T02:47:41.341Z,3.35
2023-06-20T02:51:14.515Z,3.83
2023-06-20T02:54:21.389Z,3.47
2023-06-20T02:57:22.676Z,3.70
2023-06-20T03:00:22.678Z,3.80
2023-06-20T03:07:47.850Z,3.80
2023-06-20T03:10:23.176Z,3.58
2023-06-20T03:13:25.931Z,4.10
2023-06-20T03:15:58.749Z,3.88
2023-06-20T03:18:31.614Z,4.10
2023-06-20T03:21:30.100Z,3.73
2023-06-20T03:24:03.056Z,3.85
2023-06-20T03:30:04.916Z,3.63
2023-06-20T03:32:46.610Z,3.75
2023-06-20T03:35:22.693Z,3.92
2023-06-20T03:37:57.713Z,4.13
2023-06-20T03:40:30.512Z,4.13
2023-06-20T03:43:06.391Z,3.77
2023-06-20T03:45:39.177Z,3.75
2023-06-20T03:51:04.820Z,3.28
2023-06-20T03:53:52.664Z,3.47
2023-06-20T03:56:25.623Z,3.60
2023-06-20T04:00:32.525Z,4.05
2023-06-20T04:07:32.876Z,3.85
2023-06-20T04:10:10.121Z,4.00
2023-06-20T04:12:43.665Z,3.58
2023-06-20T04:18:11.061Z,4.07
2023-06-20T04:20:43.927Z,3.47
2023-06-20T04:23:17.716Z,4.07
2023-06-20T04:25:50.877Z,3.90
2023-06-20T04:28:35.606Z,4.28
2023-06-20T04:31:08.357Z,3.83
2023-06-20T04:34:03.149Z,4.20
2023-06-20T04:36:35.901Z,4.05
2023-06-20T04:39:09.816Z,4.45
2023-06-20T04:41:42.533Z,3.83
2023-06-20T04:44:39.604Z,3.55
2023-06-20T04:50:13.560Z,3.95
2023-06-20T04:55:39.691Z,4.10
2023-06-20T05:04:58.535Z,3.95
2023-06-20T05:07:34.212Z,3.72
2023-06-20T05:11:45.143Z,3.90
2023-06-20T05:15:04.120Z,3.90
2023-06-20T05:17:53.752Z,3.78
2023-06-20T05:20:29.721Z,4.13
2023-06-20T05:23:20.733Z,3.85
2023-06-20T05:29:58.975Z,4.20
2023-06-20T05:32:32.090Z,4.10
2023-06-20T05:35:28.994Z,4.28
2023-06-20T05:38:01.893Z,4.30
2023-06-20T05:40:34.718Z,4.13
2023-06-20T05:43:07.557Z,3.70
2023-06-20T05:45:42.344Z,4.00
2023-06-20T05:55:06.528Z,3.80
2023-06-20T05:57:39.408Z,4.15
2023-06-20T06:00:38.166Z,4.27
2023-06-20T06:03:11.162Z,4.18
2023-06-20T06:05:55.900Z,4.35
2023-06-20T06:08:46.318Z,4.00
2023-06-20T06:11:26.382Z,3.83
2023-06-20T06:14:05.202Z,4.25
2023-06-20T06:16:37.958Z,4.25
2023-06-20T06:19:16.451Z,4.10
2023-06-20T06:21:49.103Z,3.83
2023-06-20T06:24:25.143Z,3.93
2023-06-20T06:27:00.978Z,4.10
2023-06-20T06:29:33.669Z,3.90
2023-06-20T06:32:18.483Z,4.20
2023-06-20T06:34:51.640Z,4.22
2023-06-20T06:37:26.263Z,3.88
2023-06-20T06:39:59.821Z,4.00
2023-06-20T06:42:45.687Z,4.20
2023-06-20T06:45:18.774Z,3.72
2023-06-20T06:47:51.471Z,4.20
2023-06-20T06:50:24.181Z,3.80
2023-06-20T06:52:57.026Z,3.95
2023-06-20T06:55:29.893Z,3.93
2023-06-20T06:58:02.711Z,3.78
2023-06-20T07:00:35.805Z,3.78
2023-06-20T07:03:09.729Z,3.78
2023-06-20T07:05:54.345Z,3.70
2023-06-20T07:08:27.013Z,3.50
2023-06-20T07:10:59.663Z,3.90
2023-06-20T07:16:33.454Z,3.78
2023-06-20T07:19:06.200Z,3.70
2023-06-20T07:21:38.880Z,3.20
2023-06-20T07:24:23.295Z,4.00
2023-06-20T07:26:56.091Z,3.80
2023-06-20T07:29:34.914Z,3.40
2023-06-20T07:32:07.903Z,3.40
2023-06-20T07:37:31.196Z,3.42
2023-06-20T07:40:15.489Z,3.55
2023-06-20T07:42:50.506Z,3.60
2023-06-20T07:45:26.598Z,3.33
2023-06-20T07:47:59.477Z,3.30
2023-06-20T07:51:23.229Z,3.65
2023-06-20T07:54:20.928Z,3.67
2023-06-20T07:58:09.287Z,3.38
2023-06-20T08:01:18.028Z,2.95
2023-06-20T08:08:29.764Z,3.35
2023-06-20T08:11:25.795Z,3.40
2023-06-20T08:14:07.333Z,3.22
2023-06-20T08:20:00.957Z,3.20
2023-06-20T08:23:07.334Z,3.20
2023-06-20T08:28:24.784Z,3.40
2023-06-20T08:31:10.550Z,3.30
2023-06-20T08:34:13.517Z,3.40
2023-06-20T08:41:30.184Z,2.90
2023-06-20T08:44:07.714Z,3.13
2023-06-20T08:47:01.028Z,3.53
2023-06-20T08:53:24.528Z,2.63
2023-06-20T08:57:18.457Z,2.97
2023-06-20T08:59:51.481Z,3.00
2023-06-20T09:03:42.566Z,3.22
2023-06-20T09:10:40.756Z,3.00
2023-06-20T09:39:42.333Z,3.05
2023-06-20T09:43:13.760Z,2.85
2023-06-20T09:45:39.535Z,3.20
2023-06-20T10:31:53.167Z,2.53
2023-06-20T10:33:59.268Z,2.67
2023-06-20T10:47:14.973Z,2.38
2023-06-20T10:55:05.514Z,2.17
2023-06-20T10:58:15.025Z,2.20
2023-06-20T11:01:04.957Z,2.50
2023-06-20T11:03:37.684Z,1.85
2023-06-20T11:09:51.494Z,2.20
2023-06-20T11:19:09.231Z,2.25
2023-06-20T11:22:13.753Z,2.05
2023-06-20T11:24:46.539Z,2.25
2023-06-20T11:27:19.533Z,2.03
2023-06-20T11:29:52.228Z,1.83
2023-06-20T11:33:32.126Z,2.33
2023-06-20T11:37:39.249Z,2.05
2023-06-20T11:40:38.139Z,2.05
2023-06-20T11:43:44.292Z,1.90
2023-06-20T11:46:18.226Z,1.92
2023-06-20T11:48:53.727Z,2.17
2023-06-20T11:51:40.433Z,1.80
2023-06-20T11:54:13.958Z,1.90
2023-06-20T11:56:52.423Z,2.10
2023-06-20T11:59:28.148Z,2.00
2023-06-20T12:02:00.963Z,2.20
2023-06-20T12:06:00.806Z,1.87
2023-06-20T12:29:11.557Z,2.00
2023-06-20T12:32:36.785Z,1.80
2023-06-20T12:42:00.405Z,1.75
2023-06-20T12:44:33.156Z,1.75
2023-06-20T12:47:06.466Z,1.87
2023-06-20T12:55:34.009Z,1.50
2023-06-20T12:58:06.946Z,1.40
2023-06-20T13:03:41.196Z,1.83
2023-06-20T13:06:17.009Z,1.58
2023-06-20T13:08:51.306Z,1.70
2023-06-20T13:15:05.618Z,2.00
2023-06-20T13:17:56.582Z,1.70
2023-06-20T13:20:38.396Z,1.73
2023-06-20T13:23:11.184Z,1.88
2023-06-20T13:25:43.942Z,1.83
2023-06-20T13:28:16.926Z,1.53
2023-06-20T13:31:00.041Z,1.60
2023-06-20T13:33:32.849Z,1.50
2023-06-20T13:36:08.683Z,1.52
2023-06-20T13:38:41.803Z,1.70
2023-06-20T13:41:14.532Z,1.70
2023-06-20T13:43:53.430Z,1.50
2023-06-20T13:52:29.417Z,1.50
2023-06-20T13:55:02.454Z,1.80
2023-06-20T13:57:41.292Z,1.75
2023-06-20T14:00:14.709Z,1.60
2023-06-20T14:02:48.093Z,1.50
2023-06-20T14:08:08.215Z,1.38
2023-06-20T14:13:51.054Z,1.60
2023-06-20T14:16:26.411Z,1.70
2023-06-20T14:19:04.970Z,1.45
2023-06-20T14:21:37.861Z,1.73
2023-06-20T14:24:13.293Z,1.60
2023-06-20T14:26:46.124Z,1.63
2023-06-20T14:29:18.847Z,1.40
2023-06-20T14:31:51.649Z,1.30
2023-06-20T14:34:24.416Z,1.52
2023-06-20T14:37:01.531Z,1.80
2023-06-20T14:39:37.590Z,1.58
2023-06-20T14:42:10.559Z,1.50
2023-06-20T14:45:04.780Z,1.50
2023-06-20T14:47:40.145Z,1.58
2023-06-20T14:50:13.171Z,1.45
2023-06-20T14:52:58.010Z,1.50
2023-06-20T14:55:37.086Z,1.70
2023-06-20T14:58:10.658Z,1.55
2023-06-20T15:03:32.818Z,1.40
2023-06-20T15:06:19.551Z,1.50
2023-06-20T15:08:52.472Z,1.48
2023-06-20T15:11:30.338Z,1.80
2023-06-20T15:17:28.496Z,1.50
2023-06-20T15:28:52.436Z,1.40
2023-06-20T15:47:50.734Z,1.60
2023-06-20T15:50:32.352Z,1.50
2023-06-20T15:53:09.326Z,1.60
2023-06-20T15:58:43.689Z,1.80
2023-06-20T16:01:41.362Z,1.70
2023-06-20T16:04:39.781Z,1.60
2023-06-20T16:07:23.840Z,1.40
2023-06-20T16:09:56.518Z,1.60
2023-06-20T16:15:10.097Z,1.70
2023-06-20T16:24:35.661Z,1.50
2023-06-20T16:30:22.468Z,1.65
2023-06-20T16:32:55.198Z,1.50
2023-06-20T16:35:29.322Z,1.33
2023-06-20T16:38:31.150Z,1.40
2023-06-20T16:41:04.579Z,1.50
2023-06-20T16:43:44.338Z,1.60
2023-06-20T16:46:17.423Z,1.40
2023-06-20T16:48:50.507Z,1.70
2023-06-20T16:51:23.213Z,1.50
2023-06-20T16:53:56.026Z,1.60
2023-06-20T16:56:29.942Z,1.30
2023-06-20T16:59:02.650Z,1.55
2023-06-20T17:01:37.837Z,1.70
2023-06-20T17:04:17.110Z,1.60
2023-06-20T17:07:10.051Z,1.50
2023-06-20T17:09:49.239Z,1.50
2023-06-20T17:12:22.127Z,1.30
2023-06-20T17:14:58.924Z,1.40
2023-06-20T17:17:34.597Z,1.48
2023-06-20T17:20:32.404Z,1.33
2023-06-20T17:23:05.161Z,1.58
2023-06-20T17:25:37.887Z,1.47
2023-06-20T17:28:28.938Z,1.40
2023-06-20T17:31:05.549Z,1.40
2023-06-20T17:33:38.232Z,1.45
2023-06-20T17:36:13.041Z,1.60
2023-06-20T17:39:00.916Z,1.30
2023-06-20T17:41:39.480Z,1.63
2023-06-20T17:44:16.128Z,1.40
2023-06-20T17:46:55.932Z,1.63
2023-06-20T17:49:38.083Z,1.45
2023-06-20T17:52:10.769Z,1.45
2023-06-20T17:54:43.360Z,1.40
2023-06-20T17:57:16.035Z,1.38
2023-06-20T18:00:06.691Z,1.30
2023-06-20T18:02:41.736Z,1.45
2023-06-20T18:08:18.457Z,1.50
2023-06-20T18:10:51.500Z,1.70
2023-06-20T18:13:26.574Z,1.45
2023-06-20T18:15:59.427Z,1.63
2023-06-20T18:18:33.589Z,1.70
2023-06-20T18:21:29.423Z,1.50
2023-06-20T18:24:06.597Z,1.50
2023-06-20T18:26:51.430Z,1.35
2023-06-20T18:29:29.648Z,1.42
2023-06-20T18:32:13.853Z,1.50
2023-06-20T18:34:48.858Z,1.70
2023-06-20T18:37:28.886Z,1.20
2023-06-20T18:40:01.824Z,1.70
2023-06-20T18:42:35.699Z,1.75
2023-06-20T18:45:15.308Z,1.40
2023-06-20T18:47:55.189Z,1.83
2023-06-20T18:50:36.915Z,1.80
2023-06-20T18:53:56.299Z,1.30
2023-06-20T18:56:35.121Z,1.73
2023-06-20T18:59:08.277Z,1.63
2023-06-20T19:01:54.394Z,1.43
2023-06-20T19:04:44.353Z,1.60
2023-06-20T19:07:19.470Z,1.42
2023-06-20T19:10:00.182Z,1.70
2023-06-20T19:12:41.841Z,1.40
2023-06-20T19:15:38.975Z,1.50
2023-06-20T19:18:20.638Z,1.60
2023-06-20T19:20:54.372Z,1.65
2023-06-20T19:23:27.073Z,1.52
2023-06-20T19:26:05.899Z,1.45
2023-06-20T19:28:47.230Z,1.65
2023-06-20T19:31:39.407Z,1.48
2023-06-20T19:34:15.311Z,1.75
2023-06-20T19:36:48.184Z,1.20
2023-06-20T19:39:20.860Z,1.40
2023-06-20T19:42:18.409Z,1.90
2023-06-20T19:45:41.156Z,1.38
2023-06-20T19:48:14.729Z,1.52
2023-06-20T19:50:48.492Z,1.73
2023-06-20T19:53:22.376Z,1.80
2023-06-20T19:55:55.044Z,1.67
2023-06-20T19:58:29.187Z,1.30
2023-06-20T20:01:02.936Z,1.80
2023-06-20T20:03:35.822Z,1.52
2023-06-20T20:06:08.482Z,2.00
2023-06-20T20:08:48.744Z,1.90
2023-06-20T20:11:21.512Z,1.42
2023-06-20T20:13:54.163Z,1.50
2023-06-20T20:16:36.117Z,2.20
2023-06-20T20:19:14.869Z,1.75
2023-06-20T20:21:54.659Z,1.67
2023-06-20T20:24:32.768Z,2.05
2023-06-20T20:27:08.274Z,1.77
2023-06-20T20:29:41.056Z,1.80
2023-06-20T20:32:24.538Z,1.67
2023-06-20T20:34:57.260Z,1.75
2023-06-20T20:37:29.953Z,1.53
2023-06-20T20:40:06.185Z,1.70
2023-06-20T20:42:39.826Z,1.65
2023-06-20T20:48:06.656Z,1.90
2023-06-20T20:53:25.730Z,1.65
2023-06-20T20:56:11.507Z,1.55
2023-06-20T20:58:45.334Z,1.50
2023-06-20T21:01:18.085Z,2.15
2023-06-20T21:03:50.900Z,1.50
2023-06-20T21:06:24.584Z,1.60
2023-06-20T21:11:39.183Z,1.65
2023-06-20T21:14:13.340Z,1.70
2023-06-20T21:16:49.908Z,1.83
2023-06-20T21:19:24.330Z,1.58
2023-06-20T21:21:57.071Z,1.55
2023-06-20T21:24:29.986Z,1.60
2023-06-20T21:27:17.198Z,2.15
2023-06-20T21:29:57.504Z,1.70
2023-06-20T21:32:42.925Z,1.58
2023-06-20T21:38:31.941Z,1.70
2023-06-20T21:41:05.472Z,1.77
2023-06-20T21:44:03.203Z,1.90
2023-06-20T21:46:36.169Z,1.75
2023-06-20T21:49:09.165Z,1.60
2023-06-20T21:51:57.492Z,1.63
2023-06-20T21:57:31.794Z,1.45
2023-06-20T22:00:12.425Z,1.70
2023-06-20T22:02:45.343Z,1.52
2023-06-20T22:05:18.472Z,2.03
2023-06-20T22:07:57.333Z,2.25
2023-06-20T22:10:51.515Z,2.30
2023-06-20T22:13:34.431Z,1.70
2023-06-20T22:16:13.181Z,2.08
2023-06-20T22:18:54.994Z,2.03
2023-06-20T22:21:39.890Z,2.05
2023-06-20T22:24:24.745Z,1.60
2023-06-20T22:27:07.290Z,1.90
2023-06-20T22:29:40.273Z,1.80
2023-06-20T22:32:17.412Z,2.00
2023-06-20T22:35:09.686Z,1.55
2023-06-20T22:37:42.284Z,1.73
2023-06-20T22:40:15.370Z,1.70
2023-06-20T22:42:48.284Z,1.48
2023-06-20T22:45:24.489Z,1.60
2023-06-20T22:47:57.995Z,1.88
2023-06-20T22:50:43.268Z,1.83
2023-06-20T22:53:31.135Z,1.90
2023-06-20T22:56:04.109Z,1.63
2023-06-20T22:59:02.510Z,1.80
2023-06-20T23:01:44.514Z,1.50
2023-06-20T23:07:28.677Z,1.70
2023-06-20T23:10:02.431Z,1.70
2023-06-20T23:12:51.345Z,1.80
2023-06-20T23:18:10.728Z,1.70
2023-06-20T23:20:46.703Z,1.63
2023-06-20T23:23:25.616Z,1.67
2023-06-20T23:26:15.807Z,1.60
2023-06-20T23:29:06.245Z,1.50
2023-06-20T23:31:39.164Z,1.80
2023-06-20T23:34:12.483Z,1.80
2023-06-20T23:36:50.825Z,1.70
2023-06-20T23:39:23.612Z,1.65
2023-06-20T23:42:04.963Z,1.67
2023-06-20T23:44:43.702Z,1.75
2023-06-20T23:50:03.445Z,1.80
2023-06-20T23:52:53.899Z,1.90
2023-06-20T23:55:41.792Z,1.83
